LFBHLFBU

Guest
Details From LFBH - La Rochelle Laleu
To LFBU - Angouleme Brie Champniers
Flight Number -
Tags generated
Created
Modified
Stats Distance 65 nm / 121 km
Max Altitude 5,400 ft / 1,646 m
Waypoints 3
Social Downloads 3
Likes 0
Share VATSIM

Download

Looking for another format? Having issues loading an existing format? Contact us
Advertisement - Login to hide

Notes

Basic altitude profile: - Ascent Rate: 2500ft/min - Ascent Speed: 250kts - Cruise Altitude: 35000ft - Cruise Speed: 420kts - Descent Rate: 1500ft/min - Descent Speed: 250kts Options: - Use NATs: yes - Use PACOTS: yes - Use low airways: yes - Use high airways: yes

Route

LFBH ADILU LFBU

ID Type Via Altitude Latitude Longitude Leg Dist Tot Dist Heading (true) Name
O LFBH APT - 0 ft / 0 m 46.17924˚ -1.19641˚ - 0 nm - La Rochelle Laleu
ADILU FIX - 5,400 ft / 1,646 m 46.12417˚ -0.83944˚ 15 nm 15 nm 102° / 103° -
O LFBU APT - 0 ft / 0 m 45.72951˚ 0.21867˚ 50 nm 65 nm 118° / 119° Angouleme Brie Champniers

Altitude Profile

Advertisement - Login to hide

LFBH

Details ICAO LFBH (LRH)
Name La Rochelle Laleu
Region France
Timezone Europe/Paris (UTC+1.0)
Stats Elevation 74 ft / 23 m (AMSL)
Location 46.179245° -1.196410°
Runways 1
Magnetic Variation 0.303° W

METAR

LFBH 121800Z AUTO 19005KT 150V220 8000 RA FEW033 BKN040 OVC050 08/06 Q1017

Decode

TAF

Not found

Departure Runways

ID Width Length Bearing (true) Bearing (mag) Surface Threshold Offset Overrun Length
10 148 ft / 45 m 7,383 ft / 2,250 m 92.43° 92.73° Asphalt 1,033 ft / 315 m 0 ft / 0 m
28 148 ft / 45 m 7,383 ft / 2,250 m 272.45° 272.75° Asphalt 1,532 ft / 467 m 0 ft / 0 m

LFBU

Details ICAO LFBU (ANG)
Name Angouleme Brie Champniers
Region France
Timezone Europe/Paris (UTC+1.0)
Stats Elevation 436 ft / 133 m (AMSL)
Location 45.729515° 0.218672°
Runways 1
Magnetic Variation 0.151° E

METAR

LFBU 121800Z AUTO 17005KT 140V200 9999 FEW039 BKN066 OVC078 05/03 Q1018

Decode

TAF

Not found

Destination Runways

ID Width Length Bearing (true) Bearing (mag) Surface Threshold Offset Overrun Length
10 148 ft / 45 m 5,923 ft / 1,805 m 96.94° 96.79° Asphalt 0 ft / 0 m 1,805 ft / 550 m
28 148 ft / 45 m 5,923 ft / 1,805 m 276.96° 276.81° Asphalt 0 ft / 0 m 1,375 ft / 419 m

Approach Navaids

Runway Type Ident Frequency Range Bearing (true) Bearing (mag) Slope Elevation
28 Localiser AM 109.35 MHz 18 nm / 33 km 276.94° 276.79° - 427 ft / 130 m (AMSL)
28 Glidescope AM 109.35 MHz 10 nm / 19 km 276.95° 276.80° 3.00° 420 ft / 128 m (AMSL)
28 DME AM 109.35 MHz 18 nm / 33 km - - - 420 ft / 128 m (AMSL)